Time;durP1;ratioP1;P1;durP2;ratioP2;P2;SDS_P1;SDS_P2;PMS_P1;PMS_P2;Temp;Humidity;BMP_temperature;BMP_pressure;BME280_temperature;BME280_humidity;BME280_pressure;Samples;Min_cycle;Max_cycle;Signal;HPM_P1;HPM_P2
2023/05/12 00:01:36;;;;;;;1.35;0.30;;;20.60;75.40;;;;;;4986114;28;20046;-72
2023/05/12 00:04:04;;;;;;;1.35;0.40;;;20.70;75.50;;;;;;4985013;28;20047;-72
2023/05/12 00:06:31;;;;;;;0.88;0.47;;;20.70;75.50;;;;;;4988107;28;20050;-72
2023/05/12 00:08:59;;;;;;;1.50;0.40;;;20.70;75.40;;;;;;4985912;28;20046;-72
2023/05/12 00:11:26;;;;;;;1.42;0.25;;;20.60;75.40;;;;;;4981498;28;20068;-71
2023/05/12 00:13:54;;;;;;;1.13;0.28;;;20.60;75.40;;;;;;4987713;28;20054;-72
2023/05/12 00:16:22;;;;;;;1.67;0.40;;;20.60;75.40;;;;;;4988591;28;20050;-72
2023/05/12 00:18:50;;;;;;;1.77;0.38;;;20.60;75.40;;;;;;4988022;28;20125;-71
2023/05/12 00:21:17;;;;;;;1.05;0.28;;;20.70;75.40;;;;;;4984649;28;20053;-72
2023/05/12 00:23:44;;;;;;;1.02;0.30;;;20.60;75.30;;;;;;4988084;28;20057;-72
2023/05/12 00:26:13;;;;;;;1.48;0.30;;;20.60;75.30;;;;;;4986211;28;20054;-72
2023/05/12 00:28:40;;;;;;;1.67;0.40;;;20.60;75.30;;;;;;4984869;28;20057;-72
2023/05/12 00:31:07;;;;;;;1.20;0.32;;;20.60;75.30;;;;;;4983871;28;20057;-72
2023/05/12 00:33:34;;;;;;;1.10;0.40;;;20.60;75.90;;;;;;4986693;28;20054;-72
2023/05/12 00:36:02;;;;;;;0.90;0.30;;;20.60;75.30;;;;;;4984644;28;20046;-72
2023/05/12 00:38:29;;;;;;;1.30;0.35;;;20.60;75.30;;;;;;4985008;28;20089;-71
2023/05/12 00:40:56;;;;;;;1.15;0.30;;;20.60;75.30;;;;;;4983396;28;20142;-72
2023/05/12 00:43:24;;;;;;;1.27;0.30;;;20.60;75.20;;;;;;4985800;28;20046;-72
2023/05/12 00:45:51;;;;;;;1.05;0.30;;;20.60;75.20;;;;;;4982042;28;20056;-72
2023/05/12 00:48:18;;;;;;;0.90;0.20;;;20.60;75.20;;;;;;4986846;28;20483;-72
2023/05/12 00:50:45;;;;;;;0.90;0.40;;;20.60;75.20;;;;;;4985515;28;20050;-72
2023/05/12 00:53:13;;;;;;;0.90;0.30;;;20.60;75.20;;;;;;4986980;28;20058;-72
2023/05/12 00:55:40;;;;;;;1.05;0.50;;;20.60;75.20;;;;;;4977354;28;20523;-72
2023/05/12 00:58:07;;;;;;;0.95;0.30;;;20.60;75.20;;;;;;4981764;28;20050;-72
2023/05/12 01:00:36;;;;;;;1.08;0.20;;;20.60;75.20;;;;;;4988031;28;20047;-72
2023/05/12 01:03:03;;;;;;;1.23;0.30;;;20.60;75.20;;;;;;4987615;28;20065;-72
2023/05/12 01:05:36;;;;;;;1.92;0.57;;;20.60;75.20;;;;;;4985787;28;20041;-72
2023/05/12 01:08:03;;;;;;;1.38;0.40;;;20.60;75.20;;;;;;4986858;28;20049;-71
2023/05/12 01:10:30;;;;;;;1.35;0.22;;;20.60;75.20;;;;;;4989785;28;20061;-71
2023/05/12 01:12:57;;;;;;;0.82;0.25;;;20.60;75.20;;;;;;4986809;28;20046;-72
2023/05/12 01:15:25;;;;;;;1.05;0.28;;;20.60;75.20;;;;;;4984873;28;20053;-72
2023/05/12 01:17:57;;;;;;;1.02;0.40;;;20.50;75.10;;;;;;4985118;28;20061;-72
2023/05/12 01:20:27;;;;;;;0.90;0.40;;;20.60;75.10;;;;;;4987464;28;22521;-71
2023/05/12 01:22:55;;;;;;;0.88;0.20;;;20.60;75.10;;;;;;4989059;28;20109;-71
2023/05/12 01:25:25;;;;;;;1.52;0.45;;;20.60;75.10;;;;;;4986329;28;20507;-71
2023/05/12 01:27:53;;;;;;;1.10;0.20;;;20.60;75.10;;;;;;4989842;28;20058;-72
2023/05/12 01:30:23;;;;;;;1.08;0.30;;;20.50;75.10;;;;;;4988807;28;20057;-72
2023/05/12 01:32:51;;;;;;;1.50;0.30;;;20.50;75.00;;;;;;4985598;28;20058;-72
2023/05/12 01:35:18;;;;;;;0.93;0.20;;;20.60;75.10;;;;;;4985922;28;20108;-72
2023/05/12 01:37:45;;;;;;;1.20;0.30;;;20.50;75.10;;;;;;4989591;28;20423;-72
2023/05/12 01:40:12;;;;;;;1.10;0.20;;;20.50;75.10;;;;;;4989065;28;20062;-72
2023/05/12 01:42:41;;;;;;;1.33;0.40;;;20.60;75.10;;;;;;4989296;28;20050;-72
2023/05/12 01:45:11;;;;;;;1.48;0.35;;;20.50;75.00;;;;;;4987970;28;20070;-72
2023/05/12 01:47:38;;;;;;;0.85;0.30;;;20.50;75.00;;;;;;4985411;28;20054;-72
2023/05/12 01:50:05;;;;;;;1.20;0.30;;;20.60;75.10;;;;;;4980052;28;20050;-71
2023/05/12 01:52:32;;;;;;;0.82;0.22;;;20.60;75.10;;;;;;4978539;28;20051;-71
2023/05/12 01:54:59;;;;;;;1.30;0.35;;;20.50;75.00;;;;;;4983982;28;20049;-71
2023/05/12 01:57:26;;;;;;;1.05;0.35;;;20.60;75.00;;;;;;4990577;28;20148;-72
2023/05/12 01:59:53;;;;;;;1.10;0.20;;;20.50;75.00;;;;;;4991642;28;20062;-72
2023/05/12 02:02:21;;;;;;;1.75;0.40;;;20.50;75.00;;;;;;4988812;28;20054;-73
2023/05/12 02:04:48;;;;;;;0.93;0.30;;;20.50;74.90;;;;;;4990245;28;20054;-72
2023/05/12 02:07:15;;;;;;;1.10;0.30;;;20.50;74.90;;;;;;4984050;28;20777;-72
2023/05/12 02:09:42;;;;;;;0.75;0.20;;;20.50;74.90;;;;;;4990585;28;20084;-72
2023/05/12 02:12:09;;;;;;;1.15;0.32;;;20.60;75.00;;;;;;4989345;28;20054;-71
2023/05/12 02:14:36;;;;;;;1.10;0.30;;;20.50;74.90;;;;;;4989371;28;20090;-71
2023/05/12 02:17:03;;;;;;;1.10;0.38;;;20.50;74.90;;;;;;4989500;28;20042;-72
2023/05/12 02:19:32;;;;;;;0.93;0.30;;;20.50;74.90;;;;;;4988801;28;20062;-71
2023/05/12 02:21:59;;;;;;;0.90;0.30;;;20.50;74.90;;;;;;4983588;28;20043;-72
2023/05/12 02:24:26;;;;;;;1.10;0.43;;;20.50;74.90;;;;;;4988287;28;20046;-72
2023/05/12 02:26:53;;;;;;;1.00;0.22;;;20.50;74.90;;;;;;4986779;28;20093;-72
2023/05/12 02:29:20;;;;;;;1.08;0.30;;;20.50;74.90;;;;;;4985654;28;20053;-72
2023/05/12 02:31:47;;;;;;;0.90;0.30;;;20.50;74.90;;;;;;4987730;28;20499;-71
2023/05/12 02:34:14;;;;;;;0.90;0.32;;;20.50;74.90;;;;;;4987887;28;20046;-71
2023/05/12 02:36:42;;;;;;;1.50;0.30;;;20.50;75.50;;;;;;4986022;28;20054;-72
2023/05/12 02:39:09;;;;;;;0.82;0.30;;;20.50;74.90;;;;;;4987610;28;20464;-72
2023/05/12 02:41:36;;;;;;;1.08;0.52;;;20.50;74.80;;;;;;4984739;28;20051;-71
2023/05/12 02:44:03;;;;;;;0.90;0.30;;;20.50;74.90;;;;;;4987083;28;20046;-72
2023/05/12 02:46:30;;;;;;;0.93;0.28;;;20.50;74.90;;;;;;4986241;28;20057;-72
2023/05/12 02:48:57;;;;;;;1.52;0.47;;;20.50;74.90;;;;;;4986853;28;20046;-72
2023/05/12 02:51:24;;;;;;;1.00;0.32;;;20.50;74.90;;;;;;4982249;28;20054;-72
2023/05/12 02:53:52;;;;;;;0.93;0.13;;;20.50;74.90;;;;;;4984089;28;20054;-71
2023/05/12 02:56:20;;;;;;;1.50;0.40;;;20.50;74.90;;;;;;4983394;28;20523;-72
2023/05/12 02:58:47;;;;;;;0.88;0.30;;;20.50;74.90;;;;;;4985180;28;20050;-72
2023/05/12 03:01:14;;;;;;;0.90;0.32;;;20.40;74.80;;;;;;4988695;28;20085;-72
2023/05/12 03:03:41;;;;;;;0.88;0.30;;;20.50;74.80;;;;;;4981085;28;20051;-71
2023/05/12 03:06:08;;;;;;;1.13;0.30;;;20.50;74.80;;;;;;4977081;28;20050;-71
2023/05/12 03:08:36;;;;;;;1.23;0.30;;;20.40;74.80;;;;;;4985419;28;20042;-72
2023/05/12 03:11:04;;;;;;;1.45;0.30;;;20.50;74.80;;;;;;4987711;28;20458;-72
2023/05/12 03:13:32;;;;;;;1.10;0.22;;;20.40;74.80;;;;;;4986465;28;20057;-71
2023/05/12 03:16:00;;;;;;;0.93;0.30;;;20.50;74.80;;;;;;4984708;28;20057;-72
2023/05/12 03:18:27;;;;;;;1.10;0.22;;;20.40;74.80;;;;;;4985847;28;20144;-71
2023/05/12 03:20:54;;;;;;;1.40;0.30;;;20.40;74.80;;;;;;4985362;28;20525;-71
2023/05/12 03:23:21;;;;;;;1.20;0.25;;;20.40;74.80;;;;;;4982227;28;20686;-71
2023/05/12 03:25:48;;;;;;;0.90;0.40;;;20.40;74.80;;;;;;4985837;28;20049;-72
2023/05/12 03:28:16;;;;;;;1.42;0.30;;;20.40;74.70;;;;;;4983727;28;20411;-71
2023/05/12 03:30:43;;;;;;;1.25;0.38;;;20.40;74.70;;;;;;4986783;28;20050;-71
2023/05/12 03:33:10;;;;;;;1.02;0.30;;;20.40;74.70;;;;;;4980113;28;20062;-71
2023/05/12 03:35:37;;;;;;;1.20;0.30;;;20.40;74.70;;;;;;4985990;28;20054;-72
2023/05/12 03:38:04;;;;;;;0.80;0.25;;;20.40;74.80;;;;;;4982994;28;20054;-72
2023/05/12 03:40:31;;;;;;;1.15;0.30;;;20.40;74.70;;;;;;4986559;28;20335;-72
2023/05/12 03:42:58;;;;;;;1.20;0.40;;;20.40;74.70;;;;;;4984368;28;20503;-71
2023/05/12 03:45:26;;;;;;;0.93;0.20;;;20.40;74.70;;;;;;4983693;28;20061;-72
2023/05/12 03:47:53;;;;;;;1.27;0.40;;;20.40;74.70;;;;;;4983878;28;20058;-72
2023/05/12 03:50:20;;;;;;;0.98;0.38;;;20.40;74.70;;;;;;4984238;28;20066;-72
2023/05/12 03:52:47;;;;;;;0.88;0.20;;;20.40;74.70;;;;;;4981280;28;20050;-72
2023/05/12 03:55:14;;;;;;;1.77;0.52;;;20.40;74.70;;;;;;4985077;28;20054;-73
2023/05/12 03:57:41;;;;;;;0.90;0.20;;;20.40;74.60;;;;;;4984414;28;20057;-72
2023/05/12 04:00:10;;;;;;;0.82;0.32;;;20.40;74.70;;;;;;4984885;28;20043;-72
2023/05/12 04:02:38;;;;;;;0.93;0.30;;;20.40;74.60;;;;;;4984668;28;20053;-72
2023/05/12 04:05:07;;;;;;;1.10;0.30;;;20.40;74.60;;;;;;4982226;28;20050;-72
2023/05/12 04:07:34;;;;;;;0.80;0.20;;;20.40;74.60;;;;;;4985729;28;20469;-72
2023/05/12 04:10:01;;;;;;;1.00;0.30;;;20.40;74.60;;;;;;4986438;28;20046;-72
2023/05/12 04:12:28;;;;;;;0.85;0.30;;;20.40;74.60;;;;;;4987874;28;20419;-72
2023/05/12 04:14:56;;;;;;;1.10;0.20;;;20.40;74.60;;;;;;4987276;28;20044;-72
2023/05/12 04:17:23;;;;;;;1.20;0.40;;;20.40;74.60;;;;;;4989176;28;20046;-71
2023/05/12 04:19:52;;;;;;;1.10;0.30;;;20.40;74.60;;;;;;4987667;28;20042;-72
2023/05/12 04:22:19;;;;;;;1.17;0.30;;;20.40;74.60;;;;;;4990511;28;20058;-72
2023/05/12 04:24:46;;;;;;;1.27;0.32;;;20.40;74.60;;;;;;4986216;28;20049;-72
2023/05/12 04:27:13;;;;;;;1.17;0.35;;;20.40;74.50;;;;;;4981363;28;20058;-72
2023/05/12 04:29:40;;;;;;;0.90;0.32;;;20.40;74.60;;;;;;4986897;28;20054;-72
2023/05/12 04:32:07;;;;;;;0.80;0.38;;;20.40;74.60;;;;;;4986246;28;20058;-71
2023/05/12 04:34:34;;;;;;;1.33;0.40;;;20.40;74.60;;;;;;4979969;28;20054;-72
2023/05/12 04:37:03;;;;;;;0.88;0.38;;;20.40;74.50;;;;;;4984941;28;20053;-72
2023/05/12 04:39:30;;;;;;;0.90;0.22;;;20.40;74.50;;;;;;4987151;28;20059;-71
2023/05/12 04:41:57;;;;;;;1.15;0.40;;;20.30;74.50;;;;;;4987071;28;20046;-72
2023/05/12 04:44:24;;;;;;;0.80;0.25;;;20.40;74.50;;;;;;4983386;28;20418;-72
2023/05/12 04:46:54;;;;;;;1.40;0.38;;;20.40;74.50;;;;;;4987744;28;20073;-72
2023/05/12 04:49:21;;;;;;;1.02;0.38;;;20.40;74.50;;;;;;4984432;28;20514;-72
2023/05/12 04:51:48;;;;;;;1.05;0.40;;;20.40;74.50;;;;;;4989704;28;20479;-72
2023/05/12 04:54:17;;;;;;;1.10;0.40;;;20.40;74.50;;;;;;4982951;28;20058;-72
2023/05/12 04:56:44;;;;;;;0.73;0.15;;;20.40;74.50;;;;;;4989772;28;20046;-71
2023/05/12 04:59:14;;;;;;;0.80;0.22;;;20.40;74.50;;;;;;4988554;28;20062;-72
2023/05/12 05:01:41;;;;;;;1.55;0.32;;;20.40;74.50;;;;;;4988407;28;20057;-72
2023/05/12 05:04:08;;;;;;;0.90;0.30;;;20.30;74.40;;;;;;4985093;28;20454;-72
2023/05/12 05:06:35;;;;;;;1.27;0.50;;;20.30;74.40;;;;;;4984376;28;20061;-72
2023/05/12 05:09:03;;;;;;;0.82;0.20;;;20.30;74.40;;;;;;4985028;28;20042;-72
2023/05/12 05:11:31;;;;;;;0.93;0.30;;;20.40;74.50;;;;;;4989022;28;20522;-70
2023/05/12 05:13:58;;;;;;;1.17;0.30;;;20.40;74.50;;;;;;4985463;28;20065;-72
2023/05/12 05:16:25;;;;;;;0.90;0.30;;;20.40;74.50;;;;;;4985064;28;20054;-71
2023/05/12 05:18:52;;;;;;;1.23;0.20;;;20.40;74.60;;;;;;4986710;28;20054;-71
2023/05/12 05:21:19;;;;;;;1.38;0.50;;;20.40;74.60;;;;;;4984036;28;20050;-72
2023/05/12 05:23:46;;;;;;;2.00;0.40;;;20.40;74.50;;;;;;4981900;28;20050;-71
2023/05/12 05:26:13;;;;;;;0.90;0.20;;;20.40;74.50;;;;;;4982891;28;20046;-71
2023/05/12 05:28:41;;;;;;;1.10;0.30;;;20.40;74.50;;;;;;4984185;28;20186;-71
2023/05/12 05:31:08;;;;;;;1.42;0.20;;;20.40;74.60;;;;;;4978115;28;20054;-71
2023/05/12 05:33:35;;;;;;;1.30;0.32;;;20.40;74.60;;;;;;4985309;28;20050;-71
2023/05/12 05:36:02;;;;;;;1.40;0.30;;;20.40;74.60;;;;;;4976526;28;20057;-71
2023/05/12 05:38:29;;;;;;;1.35;0.50;;;20.40;74.60;;;;;;4981402;28;20579;-71
2023/05/12 05:40:56;;;;;;;1.20;0.30;;;20.40;74.60;;;;;;4982948;28;20088;-71
2023/05/12 05:43:23;;;;;;;1.00;0.20;;;20.40;74.60;;;;;;4979395;28;20050;-71
2023/05/12 05:45:52;;;;;;;1.90;0.55;;;20.40;74.60;;;;;;4987332;28;20054;-71
2023/05/12 05:48:19;;;;;;;1.38;0.40;;;20.40;74.60;;;;;;4983147;28;20135;-71
2023/05/12 05:50:46;;;;;;;1.65;0.50;;;20.40;74.60;;;;;;4989193;28;20516;-71
2023/05/12 05:53:13;;;;;;;1.50;0.60;;;20.40;74.60;;;;;;4984395;28;20061;-71
2023/05/12 05:55:40;;;;;;;1.10;0.30;;;20.40;74.60;;;;;;4984222;28;20146;-71
2023/05/12 05:58:07;;;;;;;1.85;0.47;;;20.40;74.60;;;;;;4985019;28;20062;-70
2023/05/12 06:00:34;;;;;;;1.90;0.50;;;20.40;74.70;;;;;;4986460;28;20050;-69
2023/05/12 06:03:02;;;;;;;2.45;0.50;;;20.40;74.70;;;;;;4988003;28;20065;-70
2023/05/12 06:05:29;;;;;;;1.65;0.38;;;20.40;74.80;;;;;;4977159;28;20046;-71
2023/05/12 06:07:56;;;;;;;1.13;0.32;;;20.50;74.90;;;;;;4979770;28;20067;-72
2023/05/12 06:10:23;;;;;;;1.50;0.32;;;20.40;74.90;;;;;;4980963;28;20059;-72
2023/05/12 06:12:50;;;;;;;4.25;0.80;;;20.50;75.00;;;;;;4980462;28;20074;-71
2023/05/12 06:15:17;;;;;;;2.30;0.30;;;20.50;75.00;;;;;;4988802;28;20051;-72
2023/05/12 06:17:45;;;;;;;2.53;0.30;;;20.50;75.00;;;;;;4988742;28;20057;-72
2023/05/12 06:20:13;;;;;;;2.22;0.30;;;20.50;75.00;;;;;;4990540;28;20057;-72
2023/05/12 06:22:43;;;;;;;1.40;0.30;;;20.50;75.00;;;;;;4988292;28;20054;-71
2023/05/12 06:25:10;;;;;;;;;;;20.50;75.10;;;;;;4988013;28;20050;-71
2023/05/12 06:27:37;;;;;;;2.00;0.43;;;20.50;75.20;;;;;;4988659;28;19925;-71
2023/05/12 06:30:04;;;;;;;1.52;0.28;;;20.50;75.10;;;;;;4988067;28;20050;-71
2023/05/12 06:32:31;;;;;;;1.77;0.40;;;20.50;75.10;;;;;;4990442;28;20046;-71
2023/05/12 06:34:58;;;;;;;1.50;0.30;;;20.50;75.10;;;;;;4989530;28;20047;-72
2023/05/12 06:37:27;;;;;;;1.48;0.22;;;20.50;75.10;;;;;;4990366;28;20050;-72
2023/05/12 06:39:54;;;;;;;1.00;0.25;;;20.50;75.10;;;;;;4988357;28;20057;-71
2023/05/12 06:42:21;;;;;;;2.17;0.68;;;20.50;75.20;;;;;;4989005;28;20142;-71
2023/05/12 06:44:48;;;;;;;1.63;0.47;;;20.50;75.10;;;;;;4986913;28;20054;-72
2023/05/12 06:47:15;;;;;;;1.45;0.20;;;20.50;75.20;;;;;;4986605;28;20384;-71
2023/05/12 06:49:42;;;;;;;2.50;0.52;;;20.50;75.20;;;;;;4990087;28;20054;-71
2023/05/12 06:52:09;;;;;;;2.22;0.40;;;20.50;75.20;;;;;;4988315;28;20046;-72
2023/05/12 06:54:37;;;;;;;1.25;0.40;;;20.50;75.20;;;;;;4987235;28;20046;-71
2023/05/12 06:57:05;;;;;;;1.40;0.28;;;20.50;75.20;;;;;;4983772;28;20054;-71
2023/05/12 06:59:31;;;;;;;2.30;0.40;;;20.50;75.20;;;;;;4984180;28;20799;-71
2023/05/12 07:01:58;;;;;;;3.33;0.38;;;20.50;75.10;;;;;;4984959;28;20520;-71
2023/05/12 07:04:26;;;;;;;1.10;0.25;;;20.50;75.10;;;;;;4989103;28;20042;-71
2023/05/12 07:06:53;;;;;;;1.52;0.32;;;20.50;75.10;;;;;;4986254;28;20074;-71
2023/05/12 07:09:20;;;;;;;2.25;0.40;;;20.50;75.10;;;;;;4987973;28;20048;-71
2023/05/12 07:11:48;;;;;;;0.98;0.35;;;20.50;75.10;;;;;;4989639;28;20105;-71
2023/05/12 07:14:16;;;;;;;2.38;0.22;;;20.50;75.10;;;;;;4987252;28;20077;-71
2023/05/12 07:16:43;;;;;;;2.13;0.40;;;20.50;75.10;;;;;;4989130;28;20101;-71
2023/05/12 07:19:10;;;;;;;1.30;0.45;;;20.50;75.10;;;;;;4987157;28;20689;-71
2023/05/12 07:21:37;;;;;;;1.00;0.30;;;20.50;75.10;;;;;;4985661;28;20058;-71
2023/05/12 07:24:05;;;;;;;1.38;0.50;;;20.50;75.00;;;;;;4980644;28;20050;-70
2023/05/12 07:26:32;;;;;;;1.33;0.20;;;20.50;75.10;;;;;;4989238;28;20057;-71
2023/05/12 07:29:01;;;;;;;0.80;0.30;;;20.50;75.00;;;;;;4987262;28;20046;-71
2023/05/12 07:31:28;;;;;;;1.00;0.30;;;20.50;75.00;;;;;;4977170;28;20058;-71
2023/05/12 07:33:56;;;;;;;1.90;0.32;;;20.50;74.90;;;;;;4983595;28;20412;-72
2023/05/12 07:36:23;;;;;;;1.35;0.30;;;20.50;74.90;;;;;;4989526;28;20051;-71
2023/05/12 07:38:50;;;;;;;1.08;0.17;;;20.50;74.90;;;;;;4986333;28;20141;-71
2023/05/12 07:41:17;;;;;;;1.27;0.20;;;20.50;74.90;;;;;;4987425;28;20759;-70
2023/05/12 07:43:44;;;;;;;2.45;0.77;;;20.50;74.90;;;;;;4986997;28;20057;-71
2023/05/12 07:46:13;;;;;;;1.98;0.60;;;20.60;74.90;;;;;;4987778;28;20601;-71
2023/05/12 07:48:40;;;;;;;1.60;0.35;;;20.60;74.90;;;;;;4986587;28;20137;-71
2023/05/12 07:51:07;;;;;;;1.10;0.45;;;20.50;74.90;;;;;;4988407;28;20042;-71
2023/05/12 07:53:34;;;;;;;1.10;0.30;;;20.50;74.90;;;;;;4988005;28;20050;-71
2023/05/12 07:56:01;;;;;;;1.27;0.30;;;20.50;74.90;;;;;;4988450;28;20050;-71
2023/05/12 07:58:28;;;;;;;1.60;0.43;;;20.60;74.90;;;;;;4984066;28;20144;-71
2023/05/12 08:00:57;;;;;;;1.05;0.32;;;20.60;74.90;;;;;;4988852;28;20050;-71
2023/05/12 08:03:26;;;;;;;1.50;0.43;;;20.50;74.80;;;;;;4983465;28;20054;-71
2023/05/12 08:05:53;;;;;;;1.50;0.32;;;20.60;74.80;;;;;;4987939;28;20068;-71
2023/05/12 08:08:20;;;;;;;1.17;0.40;;;20.60;74.70;;;;;;4988199;28;20125;-71
2023/05/12 08:10:47;;;;;;;1.33;0.30;;;20.60;74.70;;;;;;4979381;28;20438;-71
2023/05/12 08:13:14;;;;;;;1.63;0.20;;;20.60;74.70;;;;;;4987926;28;20085;-71
2023/05/12 08:15:41;;;;;;;1.90;0.28;;;20.60;74.70;;;;;;4989043;28;20054;-71
2023/05/12 08:18:08;;;;;;;1.80;0.50;;;20.60;74.70;;;;;;4986586;28;20059;-71
2023/05/12 08:20:37;;;;;;;1.52;0.43;;;20.70;74.80;;;;;;4988877;28;20061;-72
2023/05/12 08:23:04;;;;;;;3.13;0.30;;;20.70;74.80;;;;;;4986716;28;20137;-71
2023/05/12 08:25:33;;;;;;;1.73;0.35;;;20.70;74.80;;;;;;4988660;28;20056;-71
2023/05/12 08:28:00;;;;;;;;;;;20.70;74.70;;;;;;4986713;28;20081;-71
2023/05/12 08:30:27;;;;;;;1.02;0.30;;;20.70;74.80;;;;;;4987621;28;19968;-70
2023/05/12 08:32:54;;;;;;;1.00;0.40;;;20.80;74.70;;;;;;4985358;28;20430;-71
2023/05/12 08:35:22;;;;;;;1.10;0.30;;;20.70;74.60;;;;;;4986813;28;20058;-70
2023/05/12 08:37:50;;;;;;;2.22;0.30;;;20.80;74.70;;;;;;4982489;28;20419;-71
2023/05/12 08:40:21;;;;;;;1.50;0.28;;;20.80;74.70;;;;;;4987257;28;20100;-71
2023/05/12 08:42:55;;;;;;;1.02;0.30;;;20.80;74.70;;;;;;4984176;28;20050;-71
2023/05/12 08:45:23;;;;;;;1.13;0.30;;;20.80;74.70;;;;;;4986266;28;20495;-71
2023/05/12 08:47:51;;;;;;;1.17;0.35;;;20.80;74.70;;;;;;4986483;28;20058;-71
2023/05/12 08:50:21;;;;;;;0.90;0.35;;;20.80;74.60;;;;;;4988260;28;20046;-70
2023/05/12 08:52:50;;;;;;;1.75;0.30;;;20.90;74.70;;;;;;4986598;28;20046;-71
2023/05/12 08:55:20;;;;;;;1.40;0.45;;;20.90;74.70;;;;;;4988054;28;20054;-71
2023/05/12 08:57:48;;;;;;;1.75;0.32;;;20.90;74.70;;;;;;4987268;28;20395;-71
2023/05/12 09:00:16;;;;;;;2.60;0.30;;;20.90;74.60;;;;;;4986054;28;20054;-71
2023/05/12 09:02:43;;;;;;;1.20;0.30;;;20.90;74.50;;;;;;4979417;28;20085;-71
2023/05/12 09:05:11;;;;;;;1.25;0.30;;;21.00;74.60;;;;;;4985799;28;20065;-71
2023/05/12 09:07:42;;;;;;;1.15;0.40;;;21.00;74.60;;;;;;4987326;28;20047;-71
2023/05/12 09:10:15;;;;;;;1.20;0.30;;;20.90;74.50;;;;;;4986382;28;20086;-71
2023/05/12 09:12:45;;;;;;;1.63;0.32;;;20.90;74.40;;;;;;4985773;28;20051;-71
2023/05/12 09:15:17;;;;;;;1.27;0.28;;;21.00;74.40;;;;;;4980966;28;20051;-71
2023/05/12 09:17:44;;;;;;;1.85;0.30;;;20.90;74.40;;;;;;4986224;28;20054;-71
2023/05/12 09:20:13;;;;;;;2.40;0.57;;;21.00;74.30;;;;;;4985677;28;20055;-71
2023/05/12 09:22:40;;;;;;;1.40;0.40;;;21.00;74.30;;;;;;4988196;28;20054;-71
2023/05/12 09:25:17;;;;;;;1.10;0.38;;;21.00;74.30;;;;;;4985334;28;20050;-71
2023/05/12 09:27:47;;;;;;;1.10;0.30;;;21.10;74.30;;;;;;4987837;28;20407;-71
2023/05/12 09:30:14;;;;;;;1.77;0.55;;;21.10;74.30;;;;;;4989180;28;20046;-71
2023/05/12 09:32:42;;;;;;;1.10;0.40;;;21.10;74.20;;;;;;4989722;28;20046;-71
2023/05/12 09:35:11;;;;;;;1.13;0.40;;;21.10;74.10;;;;;;4985042;28;20058;-71
2023/05/12 09:37:39;;;;;;;1.70;0.50;;;21.10;74.20;;;;;;4990016;28;20054;-71
2023/05/12 09:40:08;;;;;;;1.40;0.55;;;21.10;74.20;;;;;;4989218;28;20469;-71
2023/05/12 09:42:36;;;;;;;1.05;0.30;;;21.10;74.20;;;;;;4991133;28;20054;-71
2023/05/12 09:45:04;;;;;;;1.30;0.60;;;21.20;74.20;;;;;;4991271;28;20422;-71
2023/05/12 09:47:38;;;;;;;1.65;0.30;;;21.20;74.20;;;;;;4990399;28;20042;-71
2023/05/12 09:50:07;;;;;;;1.15;0.57;;;21.20;74.20;;;;;;4990610;28;20065;-71
2023/05/12 09:52:38;;;;;;;1.20;0.35;;;21.20;74.10;;;;;;4990161;28;20138;-71
2023/05/12 09:55:10;;;;;;;1.65;0.40;;;21.20;74.20;;;;;;4989840;28;20057;-71
2023/05/12 09:57:42;;;;;;;1.63;0.45;;;21.30;74.20;;;;;;4979367;28;20059;-71
2023/05/12 10:00:12;;;;;;;1.25;0.47;;;21.30;74.20;;;;;;4982010;28;20531;-72
2023/05/12 10:02:41;;;;;;;1.08;0.20;;;21.30;74.20;;;;;;4981405;28;20708;-71
2023/05/12 10:05:13;;;;;;;0.90;0.40;;;21.30;74.70;;;;;;4985932;28;20054;-71
2023/05/12 10:07:42;;;;;;;1.58;0.60;;;21.30;74.20;;;;;;4983986;28;20450;-71
2023/05/12 10:10:13;;;;;;;1.17;0.40;;;21.30;74.10;;;;;;4988316;28;20050;-72
2023/05/12 10:12:42;;;;;;;1.38;0.75;;;21.30;74.10;;;;;;4984525;28;20081;-71
2023/05/12 10:15:11;;;;;;;1.50;0.55;;;21.40;74.10;;;;;;4985693;28;20415;-71
2023/05/12 10:17:40;;;;;;;1.42;0.30;;;21.40;74.20;;;;;;4986474;28;20050;-72
2023/05/12 10:20:09;;;;;;;1.30;0.38;;;21.40;74.20;;;;;;4980796;28;20105;-71
2023/05/12 10:22:38;;;;;;;1.60;0.40;;;21.40;74.30;;;;;;4985673;28;20049;-71
2023/05/12 10:25:07;;;;;;;1.42;0.40;;;21.40;74.20;;;;;;4985231;28;20502;-71
2023/05/12 10:27:36;;;;;;;1.73;0.45;;;21.40;74.20;;;;;;4986802;28;20065;-72
2023/05/12 10:30:06;;;;;;;1.50;0.30;;;21.40;74.10;;;;;;4985585;28;20086;-71
2023/05/12 10:32:33;;;;;;;1.40;0.50;;;21.40;74.20;;;;;;4987357;28;20443;-72
2023/05/12 10:35:08;;;;;;;1.50;0.40;;;21.50;74.30;;;;;;4983091;28;20050;-71
2023/05/12 10:37:36;;;;;;;1.00;0.25;;;21.50;74.30;;;;;;4983784;28;20146;-73
2023/05/12 10:40:05;;;;;;;1.85;0.60;;;21.50;74.30;;;;;;4983056;28;20062;-71
2023/05/12 10:42:38;;;;;;;2.42;0.80;;;21.50;74.40;;;;;;4984099;28;20050;-71
2023/05/12 10:45:16;;;;;;;2.15;0.50;;;21.60;74.50;;;;;;4983948;28;20061;-70
2023/05/12 10:47:44;;;;;;;1.55;0.65;;;21.50;74.50;;;;;;4980773;28;20054;-71
2023/05/12 10:50:12;;;;;;;1.55;0.57;;;21.60;74.50;;;;;;4986955;28;20046;-72
2023/05/12 10:52:39;;;;;;;2.38;0.45;;;21.60;74.70;;;;;;4984029;28;20047;-71
2023/05/12 10:55:13;;;;;;;2.40;0.57;;;21.70;74.90;;;;;;4985639;28;20475;-70
2023/05/12 10:57:50;;;;;;;2.15;0.63;;;21.70;75.20;;;;;;4981707;28;20050;-71
2023/05/12 11:00:22;;;;;;;2.88;0.75;;;21.80;75.30;;;;;;4982792;28;20050;-72
2023/05/12 11:02:50;;;;;;;1.63;0.65;;;21.80;75.30;;;;;;4982985;28;20490;-70
2023/05/12 11:05:17;;;;;;;2.38;0.85;;;21.80;75.40;;;;;;4984796;28;20065;-70
2023/05/12 11:07:48;;;;;;;1.23;0.50;;;21.90;75.50;;;;;;4983433;28;20061;-68
2023/05/12 11:10:15;;;;;;;1.50;0.57;;;21.90;75.60;;;;;;4984502;28;20070;-71
2023/05/12 11:12:43;;;;;;;2.05;0.85;;;21.90;75.70;;;;;;4980806;28;20054;-69
2023/05/12 11:15:12;;;;;;;1.30;0.52;;;22.00;75.70;;;;;;4981839;28;20062;-70
2023/05/12 11:17:41;;;;;;;1.40;0.60;;;22.00;75.80;;;;;;4983150;28;20054;-69
2023/05/12 11:20:09;;;;;;;2.55;0.65;;;22.00;75.80;;;;;;4984420;28;20560;-71
2023/05/12 11:22:36;;;;;;;1.85;0.60;;;22.00;76.00;;;;;;4981527;28;20097;-71
2023/05/12 11:25:10;;;;;;;1.80;0.73;;;22.10;76.00;;;;;;4984612;28;20054;-72
2023/05/12 11:27:42;;;;;;;3.35;0.90;;;22.10;76.10;;;;;;4982261;28;20054;-70
2023/05/12 11:30:10;;;;;;;2.25;0.52;;;22.10;76.10;;;;;;4982204;28;20042;-70
2023/05/12 11:32:37;;;;;;;3.22;0.60;;;22.10;76.20;;;;;;4984344;28;20410;-69
2023/05/12 11:35:13;;;;;;;2.38;0.68;;;22.10;76.20;;;;;;4985866;28;20113;-69
2023/05/12 11:37:42;;;;;;;1.85;0.60;;;22.20;76.20;;;;;;4985044;28;20053;-69
2023/05/12 11:40:14;;;;;;;3.08;0.90;;;22.20;76.20;;;;;;4979095;28;20054;-70
2023/05/12 11:42:46;;;;;;;3.50;1.23;;;22.20;76.20;;;;;;4965214;28;20151;-70
2023/05/12 11:45:24;;;;;;;5.25;0.93;;;22.10;76.00;;;;;;4977891;28;20054;-69
2023/05/12 11:47:52;;;;;;;5.30;0.82;;;22.20;76.00;;;;;;4969093;28;20072;-70
2023/05/12 11:50:24;;;;;;;2.88;0.70;;;22.10;75.90;;;;;;4980699;28;20057;-70
2023/05/12 11:52:53;;;;;;;1.80;0.73;;;22.20;76.00;;;;;;4980243;28;20050;-70
2023/05/12 11:55:22;;;;;;;1.60;0.80;;;22.20;76.00;;;;;;4980662;28;20089;-70
2023/05/12 11:57:58;;;;;;;2.03;0.70;;;22.20;76.00;;;;;;4980537;28;20069;-70
2023/05/12 12:00:33;;;;;;;2.72;0.70;;;22.20;76.10;;;;;;4984027;28;20058;-70
2023/05/12 12:03:07;;;;;;;3.25;0.82;;;22.20;76.00;;;;;;4982425;28;20065;-71
2023/05/12 12:05:36;;;;;;;1.42;0.65;;;22.20;76.00;;;;;;4982492;28;20046;-70
2023/05/12 12:08:08;;;;;;;2.58;0.85;;;22.20;75.90;;;;;;4977971;28;20515;-70
2023/05/12 12:10:35;;;;;;;3.42;0.88;;;22.20;75.90;;;;;;4984163;28;20543;-71
2023/05/12 12:13:02;;;;;;;3.05;0.90;;;22.20;75.80;;;;;;4976599;28;20133;-71
2023/05/12 12:15:29;;;;;;;3.03;0.98;;;22.20;75.80;;;;;;4984402;28;20061;-69
2023/05/12 12:17:57;;;;;;;3.85;0.88;;;22.20;75.80;;;;;;4987424;28;20064;-69
2023/05/12 12:20:24;;;;;;;3.95;0.80;;;22.20;75.70;;;;;;4980502;28;20061;-69
2023/05/12 12:22:53;;;;;;;2.03;1.10;;;22.20;75.70;;;;;;4987415;28;20092;-69
2023/05/12 12:25:21;;;;;;;3.90;0.90;;;22.30;75.70;;;;;;4987601;28;20053;-69
2023/05/12 12:27:48;;;;;;;2.75;0.98;;;22.30;75.60;;;;;;4976048;28;20050;-71
2023/05/12 12:30:16;;;;;;;2.53;0.90;;;22.30;75.60;;;;;;4976963;28;20038;-69
2023/05/12 12:32:44;;;;;;;4.47;0.80;;;22.30;75.50;;;;;;4987933;28;20050;-69
2023/05/12 12:35:12;;;;;;;2.13;0.88;;;22.30;75.50;;;;;;4970083;28;20069;-69
2023/05/12 12:37:40;;;;;;;2.20;0.80;;;22.30;75.40;;;;;;4986653;28;20522;-69
2023/05/12 12:40:10;;;;;;;2.05;1.00;;;22.40;75.40;;;;;;4989081;28;20054;-69
2023/05/12 12:42:39;;;;;;;1.50;0.70;;;22.40;75.30;;;;;;4989157;28;20046;-69
2023/05/12 12:45:08;;;;;;;3.42;1.10;;;22.40;75.30;;;;;;4989249;28;20050;-69
2023/05/12 12:47:36;;;;;;;1.83;0.90;;;22.40;75.80;;;;;;4987225;28;20089;-69
2023/05/12 12:50:03;;;;;;;1.92;0.88;;;22.50;75.30;;;;;;4989255;28;20047;-69
2023/05/12 12:52:31;;;;;;;3.30;0.73;;;22.40;75.10;;;;;;4987653;28;20097;-69